Weather at Luis Munoz Marin International Airport

Public forecast

Using degrees Celsius for public forecast. Weather courtesy of forecast.io.

Current aviation weather report (METAR) for Luis Munoz Marin International Airport

2024/06/22 12:56 (retrieved 33 minutes ago)

TJSJ 221256Z 11007KT 10SM SCT023 BKN042 BKN120 30/25 A3000

Aviation forecast (TAF) for Luis Munoz Marin International Airport

2024/06/22 12:36 (retrieved 53 minutes ago)

TAF TJSJ 221131Z 2212/2312 12005KT P6SM VCSH FEW025 SCT060 FM221330 06012G18KT P6SM VCSH SCT025 SCT040 SCT060 FM221700 07015G22KT P6SM VCTS SCT025CB BKN050 FM222300 10009KT P6SM FEW030 SCT050